Time;durP1;ratioP1;P1;durP2;ratioP2;P2;SDS_P1;SDS_P2;PMS_P1;PMS_P2;Temp;Humidity;BMP_temperature;BMP_pressure;BME280_temperature;BME280_humidity;BME280_pressure;Samples;Min_cycle;Max_cycle;Signal;HPM_P1;HPM_P2
2022/01/29 00:01:46;;;;;;;42.17;25.83;;;6.20;99.90;;;;;;5096611;28;20467;-69
2022/01/29 00:04:16;;;;;;;36.43;26.23;;;6.10;99.90;;;;;;5097525;28;20453;-69
2022/01/29 00:06:43;;;;;;;42.43;26.50;;;6.20;99.90;;;;;;5091830;28;20487;-69
2022/01/29 00:09:14;;;;;;;34.40;24.80;;;6.20;99.90;;;;;;5101739;28;20577;-69
2022/01/29 00:11:43;;;;;;;36.50;27.20;;;6.20;99.90;;;;;;5095598;28;20559;-69
2022/01/29 00:14:10;;;;;;;33.70;26.53;;;6.30;99.90;;;;;;5093054;28;20477;-69
2022/01/29 00:16:37;;;;;;;40.47;27.00;;;6.20;99.90;;;;;;5097952;28;20486;-69
2022/01/29 00:19:05;;;;;;;35.03;26.20;;;6.20;99.90;;;;;;5098395;28;20964;-69
2022/01/29 00:21:31;;;;;;;34.33;25.87;;;6.20;99.90;;;;;;5099670;28;20470;-69
2022/01/29 00:23:59;;;;;;;37.90;26.97;;;6.20;99.90;;;;;;5092027;28;20890;-69
2022/01/29 00:26:27;;;;;;;39.13;26.40;;;6.30;99.90;;;;;;5096394;28;20467;-69
2022/01/29 00:28:57;;;;;;;39.70;27.07;;;6.30;99.90;;;;;;5095142;28;20889;-69
2022/01/29 00:31:24;;;;;;;32.90;25.43;;;6.20;99.90;;;;;;5096814;28;20468;-69
2022/01/29 00:33:51;;;;;;;35.80;25.43;;;6.30;99.90;;;;;;5092258;28;20967;-69
2022/01/29 00:36:18;;;;;;;26.80;20.90;;;6.30;99.90;;;;;;5092997;28;20481;-70
2022/01/29 00:38:45;;;;;;;39.20;27.50;;;6.20;99.90;;;;;;5099161;28;20476;-70
2022/01/29 00:41:12;;;;;;;31.10;21.10;;;6.30;99.90;;;;;;5092197;28;20990;-70
2022/01/29 00:43:38;;;;;;;39.27;25.63;;;6.30;99.90;;;;;;5090701;28;20941;-70
2022/01/29 00:46:07;;;;;;;35.23;27.87;;;6.30;99.90;;;;;;5095284;28;20497;-70
2022/01/29 00:48:33;;;;;;;39.00;27.27;;;6.30;99.90;;;;;;5095482;28;20480;-70
2022/01/29 00:51:02;;;;;;;38.63;27.10;;;6.40;99.90;;;;;;5093767;28;20462;-70
2022/01/29 00:53:29;;;;;;;42.17;29.17;;;6.40;99.90;;;;;;5097083;28;20467;-70
2022/01/29 00:55:55;;;;;;;38.17;26.37;;;6.40;99.90;;;;;;5094965;28;20643;-70
2022/01/29 00:58:22;;;;;;;38.30;27.33;;;6.40;99.90;;;;;;5095588;28;20906;-69
2022/01/29 01:00:49;;;;;;;39.57;28.80;;;6.40;99.90;;;;;;5096763;28;21452;-70
2022/01/29 01:03:17;;;;;;;38.10;25.80;;;6.40;99.90;;;;;;5096880;28;20463;-70
2022/01/29 01:05:45;;;;;;;35.40;27.00;;;6.30;99.90;;;;;;5093498;28;20609;-70
2022/01/29 01:08:11;;;;;;;36.03;27.00;;;6.30;99.90;;;;;;5094398;28;20487;-70
2022/01/29 01:10:39;;;;;;;33.20;27.60;;;6.30;99.90;;;;;;5099409;28;22459;-70
2022/01/29 01:13:06;;;;;;;38.30;26.97;;;6.40;99.90;;;;;;5097222;28;20550;-70
2022/01/29 01:15:33;;;;;;;40.03;28.93;;;6.30;99.90;;;;;;5096799;28;20989;-70
2022/01/29 01:18:00;;;;;;;27.30;22.17;;;6.30;99.90;;;;;;5100609;28;20489;-70
2022/01/29 01:23:25;;;;;;;37.27;27.33;;;6.40;99.90;;;;;;5094080;28;20819;-70
2022/01/29 01:25:52;;;;;;;32.30;25.40;;;6.40;99.90;;;;;;5096514;28;20462;-69
2022/01/29 01:28:33;;;;;;;30.43;25.97;;;6.40;99.90;;;;;;5101594;28;20925;-70
2022/01/29 01:31:01;;;;;;;42.63;26.50;;;6.40;99.90;;;;;;5101383;27;20443;-70
2022/01/29 01:33:28;;;;;;;35.60;24.43;;;6.30;99.90;;;;;;5100834;28;20463;-69
2022/01/29 01:36:00;;;;;;;29.43;23.70;;;6.40;99.90;;;;;;5097822;28;20510;-69
2022/01/29 01:38:35;;;;;;;32.87;24.00;;;6.40;99.90;;;;;;5098291;28;20541;-69
2022/01/29 01:41:06;;;;;;;33.93;26.10;;;6.40;99.90;;;;;;5098739;28;20496;-69
2022/01/29 01:43:33;;;;;;;31.37;25.47;;;6.40;99.90;;;;;;5101485;28;20466;-70
2022/01/29 01:46:00;;;;;;;39.00;27.00;;;6.50;99.90;;;;;;5093163;28;20499;-70
2022/01/29 01:48:27;;;;;;;29.07;25.37;;;6.50;99.90;;;;;;5094699;28;20463;-70
2022/01/29 01:50:56;;;;;;;40.70;24.70;;;6.40;99.90;;;;;;5097866;28;20851;-69
2022/01/29 01:53:24;;;;;;;36.60;26.27;;;6.30;99.90;;;;;;5101240;28;20465;-69
2022/01/29 01:55:52;;;;;;;31.40;25.90;;;6.30;99.90;;;;;;5097991;28;20583;-69
2022/01/29 01:58:19;;;;;;;32.57;27.20;;;6.30;99.90;;;;;;5101244;28;20456;-70
2022/01/29 02:00:46;;;;;;;32.57;23.33;;;6.40;99.90;;;;;;5099176;28;20457;-69
2022/01/29 02:03:13;;;;;;;30.77;23.37;;;6.40;99.90;;;;;;5092370;28;20491;-69
2022/01/29 02:05:40;;;;;;;33.77;26.33;;;6.50;99.90;;;;;;5100697;28;20456;-70
2022/01/29 02:08:08;;;;;;;35.83;26.63;;;6.40;99.90;;;;;;5094374;28;20489;-70
2022/01/29 02:10:35;;;;;;;27.37;22.57;;;6.40;99.90;;;;;;5094544;28;20750;-70
2022/01/29 02:13:04;;;;;;;34.33;26.30;;;6.30;99.90;;;;;;5102137;28;20470;-70
2022/01/29 02:15:32;;;;;;;34.20;27.13;;;6.50;99.90;;;;;;5096579;27;20453;-70
2022/01/29 02:18:00;;;;;;;25.80;23.00;;;6.50;99.90;;;;;;5098836;27;20997;-70
2022/01/29 02:20:28;;;;;;;31.80;25.87;;;6.50;99.90;;;;;;5097837;28;20457;-70
2022/01/29 02:22:57;;;;;;;27.23;22.50;;;6.50;99.90;;;;;;5095196;28;20465;-70
2022/01/29 02:25:36;;;;;;;34.87;25.27;;;6.50;99.90;;;;;;5091126;28;20617;-70
2022/01/29 02:28:06;;;;;;;29.03;24.40;;;6.50;99.90;;;;;;5102170;28;20533;-70
2022/01/29 02:30:34;;;;;;;31.73;22.03;;;6.50;99.90;;;;;;5094421;28;20493;-70
2022/01/29 02:33:05;;;;;;;26.60;22.10;;;6.60;99.90;;;;;;5089777;28;20963;-70
2022/01/29 02:35:32;;;;;;;24.40;21.80;;;6.50;99.90;;;;;;5097360;28;20501;-70
2022/01/29 02:38:01;;;;;;;24.67;22.07;;;6.50;99.90;;;;;;5098122;28;20493;-70
2022/01/29 02:40:28;;;;;;;35.00;23.00;;;6.60;99.90;;;;;;5098759;28;20821;-71
2022/01/29 02:42:56;;;;;;;31.40;24.30;;;6.50;99.90;;;;;;5097807;28;20872;-70
2022/01/29 02:45:26;;;;;;;32.03;24.73;;;6.50;99.90;;;;;;5090527;28;20471;-70
2022/01/29 02:47:53;;;;;;;29.23;22.20;;;6.40;99.90;;;;;;5097521;28;20468;-70
2022/01/29 02:50:20;;;;;;;34.40;23.60;;;6.40;99.90;;;;;;5098926;28;20805;-70
2022/01/29 02:52:47;;;;;;;31.40;24.97;;;6.50;99.90;;;;;;5097882;28;20469;-70
2022/01/29 02:55:15;;;;;;;40.80;23.10;;;6.40;99.90;;;;;;5100227;28;20472;-70
2022/01/29 02:57:42;;;;;;;27.50;21.97;;;6.40;99.90;;;;;;5091065;28;20495;-70
2022/01/29 03:00:10;;;;;;;34.87;23.20;;;6.30;99.90;;;;;;5098136;28;20456;-70
2022/01/29 03:02:38;;;;;;;28.70;22.80;;;6.30;99.90;;;;;;5096010;28;20842;-70
2022/01/29 03:05:06;;;;;;;31.97;23.93;;;6.30;99.90;;;;;;5099507;28;20546;-70
2022/01/29 03:07:33;;;;;;;25.80;20.40;;;6.40;99.90;;;;;;5092396;28;21029;-70
2022/01/29 03:10:00;;;;;;;27.80;22.70;;;6.40;99.90;;;;;;5101087;28;20466;-70
2022/01/29 03:12:28;;;;;;;31.87;21.63;;;6.30;99.90;;;;;;5099420;28;20837;-70
2022/01/29 03:14:55;;;;;;;25.30;20.93;;;6.40;99.90;;;;;;5084700;28;20491;-70
2022/01/29 03:17:22;;;;;;;31.00;22.53;;;6.30;99.90;;;;;;5097678;28;20516;-70
2022/01/29 03:19:50;;;;;;;28.30;23.17;;;6.30;99.90;;;;;;5090098;28;20461;-70
2022/01/29 03:22:18;;;;;;;27.90;21.20;;;6.30;99.90;;;;;;5096681;28;20546;-70
2022/01/29 03:24:45;;;;;;;24.23;21.03;;;6.30;99.90;;;;;;5097700;28;20492;-70
2022/01/29 03:27:12;;;;;;;22.57;18.50;;;6.30;99.90;;;;;;5094419;28;20458;-70
2022/01/29 03:29:40;;;;;;;22.60;19.27;;;6.30;99.90;;;;;;5098389;28;20462;-70
2022/01/29 03:32:08;;;;;;;26.37;20.50;;;6.30;99.90;;;;;;5097103;28;20458;-70
2022/01/29 03:34:35;;;;;;;25.30;20.00;;;6.20;99.90;;;;;;5091240;28;20911;-70
2022/01/29 03:37:02;;;;;;;27.20;20.77;;;6.20;99.90;;;;;;5095631;28;20481;-70
2022/01/29 03:39:29;;;;;;;25.13;20.60;;;6.30;99.90;;;;;;5102304;28;20834;-70
2022/01/29 03:42:02;;;;;;;23.33;20.17;;;6.30;99.90;;;;;;5097024;28;20554;-70
2022/01/29 03:44:30;;;;;;;31.33;20.80;;;6.20;99.90;;;;;;5097565;28;20510;-70
2022/01/29 03:46:58;;;;;;;32.27;21.40;;;6.20;99.90;;;;;;5095613;28;20466;-70
2022/01/29 03:49:25;;;;;;;26.80;18.90;;;6.20;99.90;;;;;;5093123;28;20497;-70
2022/01/29 03:51:52;;;;;;;20.30;17.53;;;6.20;99.90;;;;;;5101707;28;20502;-71
2022/01/29 03:54:19;;;;;;;24.90;19.93;;;6.10;99.90;;;;;;5098903;28;20792;-70
2022/01/29 03:56:46;;;;;;;33.30;18.00;;;6.10;99.90;;;;;;5093133;28;20482;-70
2022/01/29 03:59:12;;;;;;;22.67;20.20;;;6.10;99.90;;;;;;5095798;28;20472;-71
2022/01/29 04:01:39;;;;;;;25.90;20.20;;;6.20;99.90;;;;;;5097540;28;20806;-72
2022/01/29 04:04:08;;;;;;;28.57;21.97;;;6.20;99.90;;;;;;5088516;28;20485;-72
2022/01/29 04:06:35;;;;;;;33.40;22.07;;;6.30;99.90;;;;;;5100507;28;20497;-70
2022/01/29 04:09:05;;;;;;;28.80;23.10;;;6.20;99.90;;;;;;5095970;28;20455;-71
2022/01/29 04:11:34;;;;;;;27.20;23.50;;;6.20;99.90;;;;;;5095470;28;20457;-71
2022/01/29 04:14:01;;;;;;;25.70;22.93;;;6.10;99.90;;;;;;5098127;28;20706;-70
2022/01/29 04:16:28;;;;;;;36.70;27.47;;;6.00;99.90;;;;;;5100151;28;20454;-69
2022/01/29 04:18:55;;;;;;;34.20;27.27;;;6.10;99.90;;;;;;5091818;28;20519;-71
2022/01/29 04:21:23;;;;;;;31.40;28.00;;;6.10;99.90;;;;;;5092017;28;20981;-71
2022/01/29 04:23:50;;;;;;;29.63;26.90;;;6.10;99.90;;;;;;5090701;28;20493;-71
2022/01/29 04:26:17;;;;;;;35.87;27.50;;;6.00;99.90;;;;;;5091298;28;20458;-71
2022/01/29 04:28:45;;;;;;;36.50;27.23;;;6.00;99.90;;;;;;5097580;28;20468;-70
2022/01/29 04:31:17;;;;;;;31.40;28.30;;;6.00;99.90;;;;;;5090353;28;20459;-69
2022/01/29 04:33:45;;;;;;;27.87;26.00;;;6.00;99.90;;;;;;5097881;28;20465;-72
2022/01/29 04:36:13;;;;;;;23.20;22.00;;;6.00;99.90;;;;;;5094151;28;20473;-71
2022/01/29 04:38:42;;;;;;;24.20;23.00;;;6.00;99.90;;;;;;5093575;28;20488;-71
2022/01/29 04:41:09;;;;;;;24.13;22.93;;;6.10;99.90;;;;;;5093571;28;20454;-71
2022/01/29 04:43:37;;;;;;;23.87;22.67;;;6.10;99.90;;;;;;5097007;28;20463;-71
2022/01/29 04:46:04;;;;;;;23.77;22.60;;;6.10;99.90;;;;;;5097327;28;20811;-70
2022/01/29 04:48:31;;;;;;;38.30;34.57;;;6.10;99.90;;;;;;5107879;28;20468;-71
2022/01/29 04:50:57;;;;;;;37.43;34.07;;;6.10;99.90;;;;;;5099301;28;20465;-71
2022/01/29 04:53:24;;;;;;;39.97;36.13;;;6.10;99.90;;;;;;5096598;28;20481;-71
2022/01/29 04:55:52;;;;;;;36.30;32.57;;;6.10;99.90;;;;;;5102754;28;20884;-71
2022/01/29 04:58:19;;;;;;;37.77;34.57;;;6.10;99.90;;;;;;5100390;28;20483;-72
2022/01/29 05:00:46;;;;;;;35.03;32.03;;;6.10;99.90;;;;;;5072826;28;20462;-70
2022/01/29 05:03:14;;;;;;;35.43;32.33;;;6.10;99.90;;;;;;5073337;28;20469;-72
2022/01/29 05:05:43;;;;;;;35.23;32.10;;;6.20;99.90;;;;;;5095435;28;20461;-71
2022/01/29 05:08:11;;;;;;;36.23;33.20;;;6.20;99.90;;;;;;5093141;28;20911;-71
2022/01/29 05:10:38;;;;;;;35.67;32.67;;;6.10;99.90;;;;;;5088510;28;20550;-72
2022/01/29 05:13:11;;;;;;;35.93;32.97;;;6.20;99.90;;;;;;5077823;28;20465;-71
2022/01/29 05:15:41;;;;;;;36.37;32.77;;;6.20;99.90;;;;;;5067897;28;20474;-72
2022/01/29 05:29:10;;;;;;;34.67;32.00;;;6.40;99.90;;;;;;5067122;28;20468;-71
2022/01/29 05:31:37;;;;;;;33.93;31.17;;;6.40;99.90;;;;;;5067716;27;20477;-72
2022/01/29 05:34:04;;;;;;;34.27;31.20;;;6.40;99.90;;;;;;5073445;28;20463;-71
2022/01/29 05:36:31;;;;;;;32.90;30.40;;;6.40;99.90;;;;;;5092964;28;20525;-71
2022/01/29 05:38:59;;;;;;;33.73;30.87;;;6.40;99.90;;;;;;5093932;28;20820;-71
2022/01/29 05:41:28;;;;;;;33.00;30.20;;;6.40;99.90;;;;;;5066442;28;20470;-72
2022/01/29 05:43:55;;;;;;;34.33;31.00;;;6.40;99.90;;;;;;5076834;28;20474;-71
2022/01/29 05:46:23;;;;;;;29.53;27.33;;;6.50;99.90;;;;;;5095672;28;20467;-72
2022/01/29 05:48:50;;;;;;;32.70;29.90;;;6.40;99.90;;;;;;5088252;28;20462;-71
2022/01/29 05:51:17;;;;;;;34.20;31.17;;;6.50;99.90;;;;;;5065638;28;20952;-71
2022/01/29 05:53:44;;;;;;;34.40;31.67;;;6.60;99.90;;;;;;5067511;28;20848;-71
2022/01/29 05:56:11;;;;;;;34.90;31.40;;;6.60;99.90;;;;;;5067854;28;21092;-71
2022/01/29 05:58:38;;;;;;;34.70;31.40;;;6.70;99.90;;;;;;5066440;28;20495;-71
2022/01/29 06:01:05;;;;;;;34.03;31.13;;;6.70;99.90;;;;;;5068048;28;20459;-72
2022/01/29 06:03:33;;;;;;;32.43;29.77;;;6.70;99.90;;;;;;5065848;28;20474;-72
2022/01/29 06:06:00;;;;;;;28.67;26.40;;;6.70;99.90;;;;;;5064760;28;20463;-72
2022/01/29 06:08:27;;;;;;;29.40;27.13;;;6.70;99.90;;;;;;5066637;28;20941;-70
2022/01/29 06:10:54;;;;;;;31.90;29.20;;;6.70;99.90;;;;;;5067884;28;20580;-71
2022/01/29 06:13:21;;;;;;;30.80;28.30;;;6.70;99.90;;;;;;5068170;28;21327;-72
2022/01/29 06:15:49;;;;;;;32.93;29.83;;;6.80;99.90;;;;;;5067668;28;20462;-71
2022/01/29 06:18:19;;;;;;;34.77;31.50;;;6.70;99.90;;;;;;5067588;28;20840;-72
2022/01/29 06:20:49;;;;;;;33.87;30.97;;;6.80;99.90;;;;;;5067358;28;21694;-70
2022/01/29 06:23:17;;;;;;;34.13;31.00;;;6.80;99.90;;;;;;5067696;28;21815;-72
2022/01/29 06:25:45;;;;;;;35.73;32.00;;;6.90;99.90;;;;;;5067264;28;20979;-72
2022/01/29 06:28:12;;;;;;;37.87;34.37;;;6.80;99.90;;;;;;5069900;28;20469;-72
2022/01/29 06:30:39;;;;;;;36.80;33.23;;;6.90;99.90;;;;;;5066402;28;20462;-71
2022/01/29 06:33:10;;;;;;;34.90;31.57;;;6.90;99.90;;;;;;5065411;28;20837;-72
2022/01/29 06:35:39;;;;;;;33.90;30.70;;;6.90;99.90;;;;;;5067372;28;21296;-71
2022/01/29 06:38:09;;;;;;;30.43;27.90;;;6.90;99.90;;;;;;5066476;28;20982;-71
2022/01/29 06:40:36;;;;;;;35.23;31.93;;;6.90;99.90;;;;;;5072548;28;20468;-71
2022/01/29 06:43:05;;;;;;;34.57;31.67;;;6.90;99.90;;;;;;5100528;28;20465;-71
2022/01/29 06:45:32;;;;;;;33.10;30.33;;;7.00;99.90;;;;;;5096847;28;20471;-70
2022/01/29 06:47:59;;;;;;;31.07;28.20;;;7.00;99.90;;;;;;5088362;28;20710;-71
2022/01/29 06:50:27;;;;;;;32.33;29.27;;;7.00;99.90;;;;;;5065384;28;20469;-71
2022/01/29 06:52:54;;;;;;;31.93;28.70;;;7.00;99.90;;;;;;5060805;28;22669;-71
2022/01/29 06:55:23;;;;;;;31.30;28.70;;;7.10;99.90;;;;;;5064737;28;20477;-71
2022/01/29 06:57:51;;;;;;;31.87;28.77;;;7.00;99.90;;;;;;5063881;28;20492;-71
2022/01/29 07:00:18;;;;;;;31.70;28.97;;;7.10;99.90;;;;;;5063896;28;20496;-71
2022/01/29 07:02:45;;;;;;;31.10;28.10;;;7.10;99.90;;;;;;5064235;28;20602;-72
2022/01/29 07:05:13;;;;;;;28.70;26.10;;;7.10;99.90;;;;;;5064905;28;20566;-72
2022/01/29 07:07:40;;;;;;;28.97;26.37;;;7.10;99.90;;;;;;5062731;28;20947;-71
2022/01/29 07:10:09;;;;;;;28.30;25.80;;;7.10;99.90;;;;;;5062814;28;20465;-70
2022/01/29 07:12:39;;;;;;;33.17;30.03;;;7.10;99.90;;;;;;5063994;28;20466;-72
2022/01/29 07:15:07;;;;;;;29.37;26.67;;;7.20;99.90;;;;;;5064538;28;20493;-72
2022/01/29 07:17:35;;;;;;;28.90;26.20;;;7.20;99.90;;;;;;5064710;28;20493;-70
2022/01/29 07:20:03;;;;;;;30.10;27.13;;;7.20;99.90;;;;;;5061963;28;20562;-70
2022/01/29 07:22:30;;;;;;;28.23;25.73;;;7.20;99.90;;;;;;5064011;28;20813;-73
2022/01/29 07:24:57;;;;;;;25.30;23.07;;;7.20;99.90;;;;;;5058078;28;21573;-71
2022/01/29 07:27:23;;;;;;;28.83;25.70;;;7.20;99.90;;;;;;5092373;28;20452;-71
2022/01/29 07:29:52;;;;;;;22.30;20.60;;;7.30;99.90;;;;;;5091240;28;20462;-71
2022/01/29 07:32:18;;;;;;;26.87;24.40;;;7.30;99.90;;;;;;5067380;28;21139;-71
2022/01/29 07:34:45;;;;;;;32.10;27.00;;;7.30;99.90;;;;;;5067584;28;20497;-72
2022/01/29 07:37:12;;;;;;;28.70;25.90;;;7.40;99.90;;;;;;5067653;28;20472;-72
2022/01/29 07:39:39;;;;;;;27.30;24.70;;;7.50;99.90;;;;;;5067111;28;20861;-70
2022/01/29 07:42:07;;;;;;;27.67;25.00;;;7.40;99.90;;;;;;5067040;28;20559;-70
2022/01/29 07:44:33;;;;;;;28.50;25.87;;;7.50;99.90;;;;;;5067685;28;20555;-70
2022/01/29 07:47:02;;;;;;;27.37;24.90;;;7.50;99.90;;;;;;5067248;28;20457;-71
2022/01/29 07:49:29;;;;;;;25.07;22.87;;;7.60;99.90;;;;;;5067520;28;20800;-70
2022/01/29 07:51:55;;;;;;;28.93;26.17;;;7.50;99.90;;;;;;5067282;28;20465;-70
2022/01/29 07:54:22;;;;;;;20.83;19.17;;;7.50;99.90;;;;;;5079916;28;20470;-71
2022/01/29 07:56:49;;;;;;;27.23;24.37;;;7.50;99.90;;;;;;5071224;28;20991;-69
2022/01/29 07:59:16;;;;;;;26.00;23.73;;;7.50;99.90;;;;;;5065055;28;20491;-69
2022/01/29 08:01:42;;;;;;;25.23;22.93;;;7.60;99.90;;;;;;5066051;28;20459;-71
2022/01/29 08:04:10;;;;;;;29.13;26.37;;;7.60;99.90;;;;;;5065412;28;20458;-70
2022/01/29 08:06:37;;;;;;;28.87;25.90;;;7.70;99.90;;;;;;5066728;28;20487;-70
2022/01/29 08:09:04;;;;;;;28.03;25.53;;;7.70;99.90;;;;;;5066157;28;20457;-71
2022/01/29 08:11:31;;;;;;;28.93;22.23;;;7.70;99.90;;;;;;5066574;28;20468;-71
2022/01/29 08:13:58;;;;;;;29.13;26.23;;;7.80;99.90;;;;;;5066927;28;20485;-70
2022/01/29 08:16:25;;;;;;;23.93;21.90;;;7.80;99.90;;;;;;5084683;28;20969;-72
2022/01/29 08:18:52;;;;;;;27.73;23.90;;;7.70;99.90;;;;;;5091740;28;20488;-72
2022/01/29 08:21:21;;;;;;;28.07;25.10;;;7.70;99.90;;;;;;5096605;28;20453;-71
2022/01/29 08:23:47;;;;;;;27.27;24.47;;;7.80;99.90;;;;;;5090974;28;20480;-72
2022/01/29 08:26:14;;;;;;;24.63;22.33;;;7.80;99.90;;;;;;5073839;28;20450;-71
2022/01/29 08:28:41;;;;;;;25.80;23.10;;;7.80;99.90;;;;;;5072496;28;20464;-69
2022/01/29 08:31:08;;;;;;;27.17;24.37;;;7.80;99.90;;;;;;5072026;27;20822;-72
2022/01/29 08:33:36;;;;;;;26.63;24.03;;;7.90;99.90;;;;;;5071640;28;20461;-70
2022/01/29 08:36:03;;;;;;;25.00;22.70;;;7.90;99.90;;;;;;5073795;28;20469;-71
2022/01/29 08:38:32;;;;;;;22.27;20.50;;;8.00;99.90;;;;;;5071471;28;20941;-71
2022/01/29 08:40:59;;;;;;;23.93;22.10;;;8.00;99.90;;;;;;5073868;28;21040;-71
2022/01/29 08:43:27;;;;;;;24.70;22.50;;;8.00;99.90;;;;;;5073395;28;20998;-70
2022/01/29 08:45:54;;;;;;;23.73;21.70;;;8.00;99.90;;;;;;5080155;28;20470;-70
2022/01/29 08:48:22;;;;;;;21.33;19.50;;;8.00;99.90;;;;;;5104716;28;21147;-70
2022/01/29 08:50:49;;;;;;;23.47;21.27;;;8.00;99.90;;;;;;5106066;28;20831;-70
2022/01/29 08:53:17;;;;;;;22.30;20.30;;;8.00;99.90;;;;;;5107472;28;20969;-71
2022/01/29 08:55:45;;;;;;;24.30;22.13;;;8.10;99.90;;;;;;5071457;28;20836;-70
2022/01/29 08:58:12;;;;;;;22.50;20.70;;;8.20;99.90;;;;;;5071199;28;20495;-71
2022/01/29 09:00:41;;;;;;;22.70;20.70;;;8.20;99.90;;;;;;5070521;28;20540;-70
2022/01/29 09:03:08;;;;;;;23.33;21.23;;;8.30;99.90;;;;;;5073779;28;20908;-71
2022/01/29 09:05:35;;;;;;;22.47;20.40;;;8.40;99.90;;;;;;5073656;28;20460;-70
2022/01/29 09:08:02;;;;;;;24.50;22.47;;;8.30;99.90;;;;;;5072453;28;21015;-71
2022/01/29 09:10:30;;;;;;;23.70;21.50;;;8.40;99.90;;;;;;5073264;28;20470;-70
2022/01/29 09:12:59;;;;;;;21.60;19.93;;;8.40;99.90;;;;;;5073223;28;20461;-70
2022/01/29 09:15:26;;;;;;;23.70;21.60;;;8.50;99.90;;;;;;5071562;28;20465;-70
2022/01/29 09:17:53;;;;;;;22.00;20.20;;;8.60;99.90;;;;;;5072180;28;20562;-70
2022/01/29 09:20:20;;;;;;;24.30;22.20;;;8.50;99.90;;;;;;5072961;28;20481;-70
2022/01/29 09:22:47;;;;;;;20.97;19.23;;;8.60;99.90;;;;;;5072861;28;20461;-70
2022/01/29 09:25:14;;;;;;;23.60;21.70;;;8.60;99.90;;;;;;5073113;28;20627;-70
2022/01/29 09:27:41;;;;;;;23.30;21.40;;;8.60;99.90;;;;;;5073121;28;20470;-71
2022/01/29 09:30:10;;;;;;;23.20;21.30;;;8.70;99.90;;;;;;5071978;28;20998;-70
2022/01/29 09:32:37;;;;;;;22.93;21.10;;;8.70;99.90;;;;;;5071633;27;20499;-71
2022/01/29 09:35:05;;;;;;;22.00;20.10;;;8.60;99.90;;;;;;5070026;28;20460;-71
2022/01/29 09:37:32;;;;;;;22.50;20.50;;;8.60;99.90;;;;;;5068143;28;20458;-71
2022/01/29 09:39:59;;;;;;;23.10;20.97;;;8.70;99.90;;;;;;5069249;28;20484;-70
2022/01/29 09:42:25;;;;;;;20.10;18.37;;;8.70;99.90;;;;;;5068154;28;20627;-70
2022/01/29 09:44:52;;;;;;;20.40;18.70;;;8.80;99.90;;;;;;5068768;28;20472;-71
2022/01/29 09:47:23;;;;;;;20.60;18.90;;;8.80;99.90;;;;;;5068758;28;20464;-70
2022/01/29 09:49:51;;;;;;;20.67;18.93;;;8.80;99.90;;;;;;5066935;28;20468;-71
2022/01/29 09:52:18;;;;;;;21.87;20.07;;;8.90;99.90;;;;;;5078704;28;21129;-72
2022/01/29 09:54:49;;;;;;;21.43;19.27;;;8.90;99.90;;;;;;5102247;28;20462;-70
2022/01/29 09:57:16;;;;;;;21.73;19.93;;;9.10;99.90;;;;;;5090253;28;20470;-71
2022/01/29 09:59:43;;;;;;;22.40;20.50;;;9.20;99.90;;;;;;5069304;28;20485;-70
2022/01/29 10:02:16;;;;;;;19.93;18.10;;;9.20;99.90;;;;;;5068847;28;20758;-69
2022/01/29 10:04:49;;;;;;;19.23;17.80;;;9.10;99.90;;;;;;5069316;28;20558;-70
2022/01/29 10:07:18;;;;;;;21.17;19.37;;;9.10;99.90;;;;;;5068853;28;20496;-71
2022/01/29 10:09:45;;;;;;;18.77;17.47;;;9.10;99.90;;;;;;5066798;28;20474;-68
2022/01/29 10:12:26;;;;;;;18.63;17.23;;;9.10;99.90;;;;;;5070039;27;20949;-69
2022/01/29 10:14:56;;;;;;;20.33;18.63;;;9.10;99.90;;;;;;5070373;28;20592;-71
2022/01/29 10:17:40;;;;;;;20.37;18.80;;;9.30;99.90;;;;;;5061769;28;21907;-70
2022/01/29 10:20:10;;;;;;;20.67;18.87;;;9.20;99.90;;;;;;5061680;28;20527;-71
2022/01/29 10:22:37;;;;;;;18.23;16.93;;;9.30;99.90;;;;;;5068444;28;21151;-69
2022/01/29 10:25:06;;;;;;;19.77;18.47;;;9.30;99.90;;;;;;5048577;28;20477;-70
2022/01/29 10:27:33;;;;;;;18.30;17.10;;;9.30;99.90;;;;;;5056872;28;20458;-70
2022/01/29 10:30:02;;;;;;;18.80;17.60;;;9.30;99.90;;;;;;5055115;28;21011;-70
2022/01/29 10:32:29;;;;;;;19.00;17.70;;;9.30;99.90;;;;;;5065729;28;20464;-71
2022/01/29 10:34:58;;;;;;;18.40;17.20;;;9.30;99.90;;;;;;5069715;28;20863;-71
2022/01/29 10:37:27;;;;;;;17.30;16.20;;;9.40;99.90;;;;;;5068176;28;20991;-70
2022/01/29 10:39:55;;;;;;;17.73;16.53;;;9.20;99.90;;;;;;5067889;28;21066;-70
2022/01/29 10:42:24;;;;;;;17.50;16.40;;;9.10;99.90;;;;;;5068927;28;20473;-70
2022/01/29 10:44:54;;;;;;;15.07;14.23;;;9.10;99.90;;;;;;5068005;28;20625;-69
2022/01/29 10:47:21;;;;;;;16.70;15.60;;;9.10;99.90;;;;;;5068548;28;20955;-70
2022/01/29 10:49:53;;;;;;;16.30;15.30;;;9.00;99.90;;;;;;5067709;28;20497;-70
2022/01/29 10:52:29;;;;;;;17.00;16.00;;;9.00;99.90;;;;;;5068276;28;20603;-70
2022/01/29 10:55:00;;;;;;;17.20;16.20;;;8.90;99.90;;;;;;5068108;28;20462;-70
2022/01/29 10:57:32;;;;;;;17.30;16.20;;;8.90;99.90;;;;;;5067003;28;20622;-70
2022/01/29 11:00:00;;;;;;;18.50;17.30;;;8.90;99.90;;;;;;5067146;28;20522;-69
2022/01/29 11:02:30;;;;;;;18.20;17.03;;;8.90;99.90;;;;;;5069136;28;20831;-69
2022/01/29 11:04:57;;;;;;;20.30;18.93;;;8.80;99.90;;;;;;5068291;28;20464;-70
2022/01/29 11:07:27;;;;;;;18.50;17.30;;;8.80;99.90;;;;;;5068762;28;20483;-69
2022/01/29 11:09:57;;;;;;;19.00;17.80;;;8.90;99.90;;;;;;5067516;28;20792;-69
2022/01/29 11:12:25;;;;;;;18.70;17.50;;;8.90;99.90;;;;;;5068038;28;20907;-70
2022/01/29 11:14:54;;;;;;;18.97;17.73;;;8.90;99.90;;;;;;5067612;28;20482;-70
2022/01/29 11:17:21;;;;;;;19.57;18.37;;;9.00;99.90;;;;;;5068248;28;21294;-69
2022/01/29 11:19:48;;;;;;;18.83;17.73;;;9.00;99.90;;;;;;5067020;28;20488;-70
2022/01/29 11:22:19;;;;;;;18.47;17.47;;;9.10;99.90;;;;;;5067768;27;20464;-71
2022/01/29 11:24:50;;;;;;;18.43;17.33;;;9.20;99.90;;;;;;5068229;28;20457;-71
2022/01/29 11:27:26;;;;;;;18.10;17.10;;;9.20;99.90;;;;;;5068698;28;20473;-70
2022/01/29 11:29:58;;;;;;;17.17;16.27;;;9.20;99.90;;;;;;5091570;27;20678;-70
2022/01/29 11:32:39;;;;;;;20.90;18.93;;;9.10;99.90;;;;;;5101320;27;20459;-70
2022/01/29 11:35:18;;;;;;;17.33;16.37;;;9.30;99.90;;;;;;5094595;28;21045;-71
2022/01/29 11:37:57;;;;;;;17.23;16.13;;;9.40;99.90;;;;;;5083150;28;20966;-70
2022/01/29 11:40:30;;;;;;;16.43;15.53;;;9.40;99.90;;;;;;5068439;28;20484;-72
2022/01/29 11:43:07;;;;;;;17.33;16.33;;;9.60;99.90;;;;;;5067932;28;20957;-70
2022/01/29 11:46:04;;;;;;;16.93;15.93;;;9.60;99.90;;;;;;5067861;28;20823;-69
2022/01/29 11:48:52;;;;;;;14.03;13.33;;;9.70;99.90;;;;;;5055670;28;20569;-71
2022/01/29 11:51:51;;;;;;;14.47;13.67;;;9.70;99.90;;;;;;5067646;28;20473;-72
2022/01/29 11:54:21;;;;;;;15.80;14.90;;;9.80;99.90;;;;;;5066917;28;21573;-71
2022/01/29 11:56:49;;;;;;;16.23;15.03;;;10.10;99.90;;;;;;5066893;28;20534;-70
2022/01/29 11:59:31;;;;;;;16.20;15.10;;;10.20;99.90;;;;;;5066432;28;20486;-70
2022/01/29 12:02:01;;;;;;;15.97;14.97;;;10.30;99.90;;;;;;5066527;28;20597;-71
2022/01/29 12:05:06;;;;;;;17.23;16.13;;;10.30;99.90;;;;;;5067651;28;21047;-70
2022/01/29 12:07:36;;;;;;;15.67;14.80;;;10.40;99.90;;;;;;5066293;28;20476;-71
2022/01/29 12:10:07;;;;;;;16.10;15.20;;;10.40;99.90;;;;;;5067138;28;20460;-71
2022/01/29 12:12:35;;;;;;;15.57;14.67;;;10.40;99.90;;;;;;5067398;28;20490;-70
2022/01/29 12:15:38;;;;;;;15.90;14.80;;;10.30;99.90;;;;;;5067307;28;21206;-72
2022/01/29 12:18:23;;;;;;;15.60;14.70;;;10.30;99.90;;;;;;5066183;28;21059;-70
2022/01/29 12:20:50;;;;;;;15.43;14.53;;;10.30;99.90;;;;;;5065821;28;20650;-70
2022/01/29 12:23:17;;;;;;;15.27;14.27;;;10.30;99.90;;;;;;5072528;28;20470;-72
2022/01/29 12:25:53;;;;;;;14.50;13.73;;;10.40;99.90;;;;;;5089281;28;20548;-73
2022/01/29 12:28:20;;;;;;;13.70;13.03;;;10.50;99.90;;;;;;5065751;28;20464;-71
2022/01/29 12:30:49;;;;;;;14.50;13.73;;;10.50;99.90;;;;;;5065272;28;20887;-70
2022/01/29 12:33:17;;;;;;;14.20;13.40;;;10.50;99.90;;;;;;5065936;28;21158;-70
2022/01/29 12:35:48;;;;;;;14.00;13.30;;;10.50;99.90;;;;;;5066252;28;20464;-70
2022/01/29 12:38:16;;;;;;;14.80;13.90;;;10.50;99.90;;;;;;5066860;28;20457;-69
2022/01/29 12:40:54;;;;;;;14.53;13.60;;;10.70;99.90;;;;;;5066946;28;20485;-70
2022/01/29 12:43:31;;;;;;;13.90;13.10;;;10.60;99.90;;;;;;5067450;28;20468;-70
2022/01/29 12:46:13;;;;;;;14.37;13.57;;;10.40;99.90;;;;;;5067766;28;20459;-71
2022/01/29 12:48:41;;;;;;;13.90;13.10;;;10.50;99.90;;;;;;5066719;28;20473;-70
2022/01/29 12:51:10;;;;;;;13.70;13.00;;;10.50;99.90;;;;;;5066354;28;20472;-70
2022/01/29 12:53:38;;;;;;;13.30;12.70;;;10.50;99.90;;;;;;5066986;28;20979;-70
2022/01/29 12:56:07;;;;;;;14.17;13.37;;;10.50;99.90;;;;;;5067356;28;22332;-71
2022/01/29 12:58:36;;;;;;;14.00;13.17;;;10.50;99.90;;;;;;5066127;28;20951;-70